sensor_id;sensor_type;location;lat;lon;timestamp;P1;durP1;ratioP1;P2;durP2;ratioP2
10761;SDS011;5433;50.862;4.320;2022-08-27T00:02:07;6.78;;;2.60;;
10761;SDS011;5433;50.862;4.320;2022-08-27T00:04:33;5.97;;;2.75;;
10761;SDS011;5433;50.862;4.320;2022-08-27T00:07:01;4.75;;;2.42;;
10761;SDS011;5433;50.862;4.320;2022-08-27T00:09:28;7.13;;;2.80;;
10761;SDS011;5433;50.862;4.320;2022-08-27T00:11:54;6.82;;;2.75;;
10761;SDS011;5433;50.862;4.320;2022-08-27T00:14:21;5.05;;;2.80;;
10761;SDS011;5433;50.862;4.320;2022-08-27T00:16:48;5.32;;;3.00;;
10761;SDS011;5433;50.862;4.320;2022-08-27T00:19:27;4.63;;;2.45;;
10761;SDS011;5433;50.862;4.320;2022-08-27T00:21:52;5.70;;;2.60;;
10761;SDS011;5433;50.862;4.320;2022-08-27T00:24:19;4.65;;;2.70;;
10761;SDS011;5433;50.862;4.320;2022-08-27T00:26:45;4.10;;;2.78;;
10761;SDS011;5433;50.862;4.320;2022-08-27T00:29:11;5.38;;;2.70;;
10761;SDS011;5433;50.862;4.320;2022-08-27T00:31:37;7.50;;;4.00;;
10761;SDS011;5433;50.862;4.320;2022-08-27T00:34:03;4.50;;;2.63;;
10761;SDS011;5433;50.862;4.320;2022-08-27T00:36:29;6.20;;;2.67;;
10761;SDS011;5433;50.862;4.320;2022-08-27T00:38:55;6.70;;;2.60;;
10761;SDS011;5433;50.862;4.320;2022-08-27T00:41:21;4.90;;;2.67;;
10761;SDS011;5433;50.862;4.320;2022-08-27T00:43:52;6.07;;;2.88;;
10761;SDS011;5433;50.862;4.320;2022-08-27T00:46:23;5.65;;;2.47;;
10761;SDS011;5433;50.862;4.320;2022-08-27T00:48:50;5.40;;;2.40;;
10761;SDS011;5433;50.862;4.320;2022-08-27T00:51:17;5.78;;;2.70;;
10761;SDS011;5433;50.862;4.320;2022-08-27T00:53:45;5.18;;;2.35;;
10761;SDS011;5433;50.862;4.320;2022-08-27T00:56:15;6.57;;;2.47;;
10761;SDS011;5433;50.862;4.320;2022-08-27T00:58:44;4.47;;;2.30;;
10761;SDS011;5433;50.862;4.320;2022-08-27T01:01:13;4.72;;;2.55;;
10761;SDS011;5433;50.862;4.320;2022-08-27T01:03:39;6.03;;;2.53;;
10761;SDS011;5433;50.862;4.320;2022-08-27T01:06:08;4.50;;;2.40;;
10761;SDS011;5433;50.862;4.320;2022-08-27T01:08:36;6.65;;;2.33;;
10761;SDS011;5433;50.862;4.320;2022-08-27T01:11:03;6.15;;;2.40;;
10761;SDS011;5433;50.862;4.320;2022-08-27T01:13:30;4.70;;;2.42;;
10761;SDS011;5433;50.862;4.320;2022-08-27T01:15:57;4.40;;;2.28;;
10761;SDS011;5433;50.862;4.320;2022-08-27T01:18:24;3.38;;;1.88;;
10761;SDS011;5433;50.862;4.320;2022-08-27T01:20:54;5.25;;;2.25;;
10761;SDS011;5433;50.862;4.320;2022-08-27T01:26:05;4.75;;;2.30;;
10761;SDS011;5433;50.862;4.320;2022-08-27T01:28:34;8.13;;;2.50;;
10761;SDS011;5433;50.862;4.320;2022-08-27T01:31:00;5.80;;;2.08;;
10761;SDS011;5433;50.862;4.320;2022-08-27T01:33:26;6.38;;;2.20;;
10761;SDS011;5433;50.862;4.320;2022-08-27T01:35:52;6.45;;;2.38;;
10761;SDS011;5433;50.862;4.320;2022-08-27T01:38:19;3.65;;;1.92;;
10761;SDS011;5433;50.862;4.320;2022-08-27T01:40:45;3.05;;;2.10;;
10761;SDS011;5433;50.862;4.320;2022-08-27T01:43:11;5.20;;;2.00;;
10761;SDS011;5433;50.862;4.320;2022-08-27T01:45:38;2.85;;;2.20;;
10761;SDS011;5433;50.862;4.320;2022-08-27T01:48:05;4.65;;;2.13;;
10761;SDS011;5433;50.862;4.320;2022-08-27T01:50:36;7.30;;;2.35;;
10761;SDS011;5433;50.862;4.320;2022-08-27T01:53:04;3.92;;;2.03;;
10761;SDS011;5433;50.862;4.320;2022-08-27T01:55:31;5.30;;;2.30;;
10761;SDS011;5433;50.862;4.320;2022-08-27T01:57:57;4.93;;;2.42;;
10761;SDS011;5433;50.862;4.320;2022-08-27T02:00:25;6.15;;;2.20;;
10761;SDS011;5433;50.862;4.320;2022-08-27T02:02:51;4.75;;;2.10;;
10761;SDS011;5433;50.862;4.320;2022-08-27T02:05:18;6.00;;;2.30;;
10761;SDS011;5433;50.862;4.320;2022-08-27T02:07:44;3.47;;;2.10;;
10761;SDS011;5433;50.862;4.320;2022-08-27T02:10:12;2.65;;;2.13;;
10761;SDS011;5433;50.862;4.320;2022-08-27T02:12:39;3.70;;;2.20;;
10761;SDS011;5433;50.862;4.320;2022-08-27T02:15:05;4.15;;;2.08;;
10761;SDS011;5433;50.862;4.320;2022-08-27T02:17:31;6.13;;;2.20;;
10761;SDS011;5433;50.862;4.320;2022-08-27T02:19:58;3.75;;;1.98;;
10761;SDS011;5433;50.862;4.320;2022-08-27T02:22:24;5.05;;;2.40;;
10761;SDS011;5433;50.862;4.320;2022-08-27T02:24:50;4.95;;;2.28;;
10761;SDS011;5433;50.862;4.320;2022-08-27T02:27:18;5.63;;;2.20;;
10761;SDS011;5433;50.862;4.320;2022-08-27T02:29:45;6.10;;;2.20;;
10761;SDS011;5433;50.862;4.320;2022-08-27T02:32:12;3.47;;;2.20;;
10761;SDS011;5433;50.862;4.320;2022-08-27T02:34:38;4.35;;;2.30;;
10761;SDS011;5433;50.862;4.320;2022-08-27T02:37:11;5.93;;;2.30;;
10761;SDS011;5433;50.862;4.320;2022-08-27T02:39:38;4.93;;;2.47;;
10761;SDS011;5433;50.862;4.320;2022-08-27T02:42:07;4.68;;;2.55;;
10761;SDS011;5433;50.862;4.320;2022-08-27T02:44:34;6.25;;;2.60;;
10761;SDS011;5433;50.862;4.320;2022-08-27T02:47:00;3.80;;;2.30;;
10761;SDS011;5433;50.862;4.320;2022-08-27T02:52:02;3.63;;;2.50;;
10761;SDS011;5433;50.862;4.320;2022-08-27T02:54:32;5.18;;;2.40;;
10761;SDS011;5433;50.862;4.320;2022-08-27T02:56:58;6.18;;;2.60;;
10761;SDS011;5433;50.862;4.320;2022-08-27T02:59:24;5.13;;;2.50;;
10761;SDS011;5433;50.862;4.320;2022-08-27T03:01:56;5.25;;;2.60;;
10761;SDS011;5433;50.862;4.320;2022-08-27T03:04:22;6.00;;;2.90;;
10761;SDS011;5433;50.862;4.320;2022-08-27T03:06:48;7.82;;;2.90;;
10761;SDS011;5433;50.862;4.320;2022-08-27T03:09:14;4.95;;;2.40;;
10761;SDS011;5433;50.862;4.320;2022-08-27T03:11:40;7.72;;;2.95;;
10761;SDS011;5433;50.862;4.320;2022-08-27T03:14:06;6.38;;;2.60;;
10761;SDS011;5433;50.862;4.320;2022-08-27T03:16:33;5.13;;;2.72;;
10761;SDS011;5433;50.862;4.320;2022-08-27T03:19:00;7.57;;;3.00;;
10761;SDS011;5433;50.862;4.320;2022-08-27T03:21:30;4.13;;;2.80;;
10761;SDS011;5433;50.862;4.320;2022-08-27T03:23:56;6.30;;;3.00;;
10761;SDS011;5433;50.862;4.320;2022-08-27T03:26:24;6.28;;;3.38;;
10761;SDS011;5433;50.862;4.320;2022-08-27T03:28:52;8.75;;;3.20;;
10761;SDS011;5433;50.862;4.320;2022-08-27T03:31:18;6.68;;;3.45;;
10761;SDS011;5433;50.862;4.320;2022-08-27T03:33:57;8.90;;;3.20;;
10761;SDS011;5433;50.862;4.320;2022-08-27T03:36:24;6.88;;;3.42;;
10761;SDS011;5433;50.862;4.320;2022-08-27T03:38:50;5.20;;;3.75;;
10761;SDS011;5433;50.862;4.320;2022-08-27T03:41:16;8.48;;;3.03;;
10761;SDS011;5433;50.862;4.320;2022-08-27T03:43:45;5.88;;;3.40;;
10761;SDS011;5433;50.862;4.320;2022-08-27T03:46:11;4.88;;;3.50;;
10761;SDS011;5433;50.862;4.320;2022-08-27T03:48:37;5.82;;;3.75;;
10761;SDS011;5433;50.862;4.320;2022-08-27T03:51:08;8.18;;;3.97;;
10761;SDS011;5433;50.862;4.320;2022-08-27T03:53:35;5.82;;;3.45;;
10761;SDS011;5433;50.862;4.320;2022-08-27T03:56:02;6.03;;;3.63;;
10761;SDS011;5433;50.862;4.320;2022-08-27T03:58:29;4.32;;;3.50;;
10761;SDS011;5433;50.862;4.320;2022-08-27T04:00:55;7.03;;;3.85;;
10761;SDS011;5433;50.862;4.320;2022-08-27T04:03:21;6.63;;;3.45;;
10761;SDS011;5433;50.862;4.320;2022-08-27T04:05:51;9.10;;;3.90;;
10761;SDS011;5433;50.862;4.320;2022-08-27T04:08:17;6.75;;;3.30;;
10761;SDS011;5433;50.862;4.320;2022-08-27T04:10:43;5.68;;;3.50;;
10761;SDS011;5433;50.862;4.320;2022-08-27T04:13:09;8.10;;;3.50;;
10761;SDS011;5433;50.862;4.320;2022-08-27T04:15:35;4.82;;;3.45;;
10761;SDS011;5433;50.862;4.320;2022-08-27T04:18:01;5.95;;;3.28;;
10761;SDS011;5433;50.862;4.320;2022-08-27T04:20:27;6.45;;;3.60;;
10761;SDS011;5433;50.862;4.320;2022-08-27T04:22:53;7.03;;;3.33;;
10761;SDS011;5433;50.862;4.320;2022-08-27T04:25:19;8.85;;;3.60;;
10761;SDS011;5433;50.862;4.320;2022-08-27T04:27:45;6.93;;;3.78;;
10761;SDS011;5433;50.862;4.320;2022-08-27T04:30:12;8.18;;;3.70;;
10761;SDS011;5433;50.862;4.320;2022-08-27T04:32:39;5.57;;;3.20;;
10761;SDS011;5433;50.862;4.320;2022-08-27T04:35:06;5.63;;;3.47;;
10761;SDS011;5433;50.862;4.320;2022-08-27T04:37:32;6.65;;;3.42;;
10761;SDS011;5433;50.862;4.320;2022-08-27T04:39:58;6.43;;;3.47;;
10761;SDS011;5433;50.862;4.320;2022-08-27T04:42:24;11.23;;;3.40;;
10761;SDS011;5433;50.862;4.320;2022-08-27T04:44:50;6.68;;;3.60;;
10761;SDS011;5433;50.862;4.320;2022-08-27T04:47:17;4.40;;;3.42;;
10761;SDS011;5433;50.862;4.320;2022-08-27T04:49:44;5.07;;;3.40;;
10761;SDS011;5433;50.862;4.320;2022-08-27T04:52:10;6.80;;;3.22;;
10761;SDS011;5433;50.862;4.320;2022-08-27T04:54:37;7.28;;;3.67;;
10761;SDS011;5433;50.862;4.320;2022-08-27T04:57:04;9.45;;;3.67;;
10761;SDS011;5433;50.862;4.320;2022-08-27T04:59:31;7.45;;;3.47;;
10761;SDS011;5433;50.862;4.320;2022-08-27T05:01:58;5.35;;;3.10;;
10761;SDS011;5433;50.862;4.320;2022-08-27T05:04:25;6.55;;;3.10;;
10761;SDS011;5433;50.862;4.320;2022-08-27T05:06:53;5.75;;;3.50;;
10761;SDS011;5433;50.862;4.320;2022-08-27T05:09:19;7.47;;;3.53;;
10761;SDS011;5433;50.862;4.320;2022-08-27T05:11:45;5.53;;;3.72;;
10761;SDS011;5433;50.862;4.320;2022-08-27T05:14:12;6.80;;;3.50;;
10761;SDS011;5433;50.862;4.320;2022-08-27T05:16:39;6.90;;;3.10;;
10761;SDS011;5433;50.862;4.320;2022-08-27T05:19:10;7.00;;;3.50;;
10761;SDS011;5433;50.862;4.320;2022-08-27T05:24:33;6.68;;;3.35;;
10761;SDS011;5433;50.862;4.320;2022-08-27T05:26:59;6.25;;;3.83;;
10761;SDS011;5433;50.862;4.320;2022-08-27T05:29:25;7.55;;;3.40;;
10761;SDS011;5433;50.862;4.320;2022-08-27T05:31:51;8.05;;;3.45;;
10761;SDS011;5433;50.862;4.320;2022-08-27T05:34:17;5.40;;;3.42;;
10761;SDS011;5433;50.862;4.320;2022-08-27T05:36:45;7.93;;;3.72;;
10761;SDS011;5433;50.862;4.320;2022-08-27T05:39:11;5.63;;;3.30;;
10761;SDS011;5433;50.862;4.320;2022-08-27T05:41:37;5.65;;;3.15;;
10761;SDS011;5433;50.862;4.320;2022-08-27T05:44:05;9.43;;;3.72;;
10761;SDS011;5433;50.862;4.320;2022-08-27T05:46:33;5.55;;;3.22;;
10761;SDS011;5433;50.862;4.320;2022-08-27T05:49:00;5.45;;;3.25;;
10761;SDS011;5433;50.862;4.320;2022-08-27T05:51:30;5.60;;;3.40;;
10761;SDS011;5433;50.862;4.320;2022-08-27T05:54:04;6.07;;;3.60;;
10761;SDS011;5433;50.862;4.320;2022-08-27T05:56:31;6.20;;;3.50;;
10761;SDS011;5433;50.862;4.320;2022-08-27T05:58:58;6.53;;;3.35;;
10761;SDS011;5433;50.862;4.320;2022-08-27T06:01:44;8.63;;;3.67;;
10761;SDS011;5433;50.862;4.320;2022-08-27T06:04:11;9.63;;;3.70;;
10761;SDS011;5433;50.862;4.320;2022-08-27T06:06:38;7.32;;;3.80;;
10761;SDS011;5433;50.862;4.320;2022-08-27T06:09:04;7.65;;;3.25;;
10761;SDS011;5433;50.862;4.320;2022-08-27T06:11:31;5.95;;;3.20;;
10761;SDS011;5433;50.862;4.320;2022-08-27T06:13:57;5.13;;;3.25;;
10761;SDS011;5433;50.862;4.320;2022-08-27T06:16:23;4.90;;;3.03;;
10761;SDS011;5433;50.862;4.320;2022-08-27T06:18:49;10.25;;;3.58;;
10761;SDS011;5433;50.862;4.320;2022-08-27T06:21:16;7.38;;;3.20;;
10761;SDS011;5433;50.862;4.320;2022-08-27T06:23:43;6.30;;;2.92;;
10761;SDS011;5433;50.862;4.320;2022-08-27T06:26:10;7.63;;;2.78;;
10761;SDS011;5433;50.862;4.320;2022-08-27T06:28:37;6.53;;;3.00;;
10761;SDS011;5433;50.862;4.320;2022-08-27T06:31:07;5.47;;;2.60;;
10761;SDS011;5433;50.862;4.320;2022-08-27T06:33:33;5.07;;;2.90;;
10761;SDS011;5433;50.862;4.320;2022-08-27T06:36:00;6.00;;;2.85;;
10761;SDS011;5433;50.862;4.320;2022-08-27T06:38:26;6.28;;;2.92;;
10761;SDS011;5433;50.862;4.320;2022-08-27T06:40:53;4.43;;;2.70;;
10761;SDS011;5433;50.862;4.320;2022-08-27T06:43:20;5.68;;;2.85;;
10761;SDS011;5433;50.862;4.320;2022-08-27T06:45:46;4.40;;;2.80;;
10761;SDS011;5433;50.862;4.320;2022-08-27T06:48:12;4.80;;;2.65;;
10761;SDS011;5433;50.862;4.320;2022-08-27T06:50:39;6.55;;;2.60;;
10761;SDS011;5433;50.862;4.320;2022-08-27T06:53:05;6.88;;;2.40;;
10761;SDS011;5433;50.862;4.320;2022-08-27T06:55:31;6.20;;;2.60;;
10761;SDS011;5433;50.862;4.320;2022-08-27T06:57:57;4.72;;;2.40;;
10761;SDS011;5433;50.862;4.320;2022-08-27T07:00:23;5.68;;;2.50;;
10761;SDS011;5433;50.862;4.320;2022-08-27T07:02:49;7.22;;;2.20;;
10761;SDS011;5433;50.862;4.320;2022-08-27T07:05:15;5.10;;;2.20;;
10761;SDS011;5433;50.862;4.320;2022-08-27T07:07:43;6.20;;;2.22;;
10761;SDS011;5433;50.862;4.320;2022-08-27T07:10:09;10.30;;;2.60;;
10761;SDS011;5433;50.862;4.320;2022-08-27T07:12:35;5.07;;;2.13;;
10761;SDS011;5433;50.862;4.320;2022-08-27T07:15:01;6.97;;;2.15;;
10761;SDS011;5433;50.862;4.320;2022-08-27T07:17:27;6.10;;;1.77;;
10761;SDS011;5433;50.862;4.320;2022-08-27T07:19:53;4.10;;;1.77;;
10761;SDS011;5433;50.862;4.320;2022-08-27T07:22:19;4.80;;;1.92;;
10761;SDS011;5433;50.862;4.320;2022-08-27T07:24:45;5.47;;;1.90;;
10761;SDS011;5433;50.862;4.320;2022-08-27T07:27:11;6.65;;;1.67;;
10761;SDS011;5433;50.862;4.320;2022-08-27T07:29:37;3.97;;;1.75;;
10761;SDS011;5433;50.862;4.320;2022-08-27T07:32:03;6.18;;;1.98;;
10761;SDS011;5433;50.862;4.320;2022-08-27T07:34:29;4.25;;;1.70;;
10761;SDS011;5433;50.862;4.320;2022-08-27T07:36:55;4.78;;;1.85;;
10761;SDS011;5433;50.862;4.320;2022-08-27T07:39:21;6.28;;;1.88;;
10761;SDS011;5433;50.862;4.320;2022-08-27T07:41:47;5.90;;;1.85;;
10761;SDS011;5433;50.862;4.320;2022-08-27T07:44:32;4.63;;;1.80;;
10761;SDS011;5433;50.862;4.320;2022-08-27T07:46:58;4.65;;;1.70;;
10761;SDS011;5433;50.862;4.320;2022-08-27T07:49:26;4.40;;;1.70;;
10761;SDS011;5433;50.862;4.320;2022-08-27T07:51:52;5.13;;;1.90;;
10761;SDS011;5433;50.862;4.320;2022-08-27T07:54:20;3.53;;;1.40;;
10761;SDS011;5433;50.862;4.320;2022-08-27T07:56:46;7.18;;;1.67;;
10761;SDS011;5433;50.862;4.320;2022-08-27T07:59:12;3.92;;;1.55;;
10761;SDS011;5433;50.862;4.320;2022-08-27T08:01:38;3.25;;;1.70;;
10761;SDS011;5433;50.862;4.320;2022-08-27T08:04:06;5.32;;;1.50;;
10761;SDS011;5433;50.862;4.320;2022-08-27T08:06:34;4.47;;;1.35;;
10761;SDS011;5433;50.862;4.320;2022-08-27T08:09:01;4.10;;;1.50;;
10761;SDS011;5433;50.862;4.320;2022-08-27T08:11:27;4.25;;;1.40;;
10761;SDS011;5433;50.862;4.320;2022-08-27T08:13:53;3.75;;;1.30;;
10761;SDS011;5433;50.862;4.320;2022-08-27T08:16:19;5.63;;;1.42;;
10761;SDS011;5433;50.862;4.320;2022-08-27T08:18:48;3.28;;;1.30;;
10761;SDS011;5433;50.862;4.320;2022-08-27T08:21:14;5.28;;;1.73;;
10761;SDS011;5433;50.862;4.320;2022-08-27T08:23:40;7.20;;;1.50;;
10761;SDS011;5433;50.862;4.320;2022-08-27T08:26:07;5.25;;;1.50;;
10761;SDS011;5433;50.862;4.320;2022-08-27T08:28:34;4.40;;;2.38;;
10761;SDS011;5433;50.862;4.320;2022-08-27T08:31:00;3.97;;;1.65;;
10761;SDS011;5433;50.862;4.320;2022-08-27T08:33:27;6.70;;;2.10;;
10761;SDS011;5433;50.862;4.320;2022-08-27T08:36:00;6.53;;;2.13;;
10761;SDS011;5433;50.862;4.320;2022-08-27T08:38:26;5.47;;;1.63;;
10761;SDS011;5433;50.862;4.320;2022-08-27T08:40:52;3.40;;;1.80;;
10761;SDS011;5433;50.862;4.320;2022-08-27T08:43:26;2.88;;;1.30;;
10761;SDS011;5433;50.862;4.320;2022-08-27T08:45:53;3.80;;;1.58;;
10761;SDS011;5433;50.862;4.320;2022-08-27T08:48:21;3.38;;;1.40;;
10761;SDS011;5433;50.862;4.320;2022-08-27T08:50:50;6.57;;;1.48;;
10761;SDS011;5433;50.862;4.320;2022-08-27T08:53:20;6.03;;;1.60;;
10761;SDS011;5433;50.862;4.320;2022-08-27T08:55:53;4.45;;;1.50;;
10761;SDS011;5433;50.862;4.320;2022-08-27T09:01:05;7.28;;;1.65;;
10761;SDS011;5433;50.862;4.320;2022-08-27T09:03:32;7.97;;;1.30;;
10761;SDS011;5433;50.862;4.320;2022-08-27T09:06:01;5.80;;;1.40;;
10761;SDS011;5433;50.862;4.320;2022-08-27T09:08:30;4.93;;;1.55;;
10761;SDS011;5433;50.862;4.320;2022-08-27T09:10:58;6.53;;;1.55;;
10761;SDS011;5433;50.862;4.320;2022-08-27T09:13:29;4.45;;;1.65;;
10761;SDS011;5433;50.862;4.320;2022-08-27T09:15:58;4.10;;;1.40;;
10761;SDS011;5433;50.862;4.320;2022-08-27T09:18:25;5.57;;;1.50;;
10761;SDS011;5433;50.862;4.320;2022-08-27T09:20:53;3.40;;;1.50;;
10761;SDS011;5433;50.862;4.320;2022-08-27T09:23:25;2.65;;;1.30;;
10761;SDS011;5433;50.862;4.320;2022-08-27T09:25:55;3.05;;;1.40;;
10761;SDS011;5433;50.862;4.320;2022-08-27T09:28:25;3.28;;;1.50;;
10761;SDS011;5433;50.862;4.320;2022-08-27T09:31:14;3.78;;;1.45;;
10761;SDS011;5433;50.862;4.320;2022-08-27T09:33:41;6.35;;;1.67;;
10761;SDS011;5433;50.862;4.320;2022-08-27T09:36:08;4.78;;;1.58;;
10761;SDS011;5433;50.862;4.320;2022-08-27T09:38:34;3.85;;;1.33;;
10761;SDS011;5433;50.862;4.320;2022-08-27T09:41:12;7.65;;;1.55;;
10761;SDS011;5433;50.862;4.320;2022-08-27T09:43:41;3.90;;;1.48;;
10761;SDS011;5433;50.862;4.320;2022-08-27T09:46:19;2.03;;;1.30;;
10761;SDS011;5433;50.862;4.320;2022-08-27T09:48:45;4.35;;;1.60;;
10761;SDS011;5433;50.862;4.320;2022-08-27T09:51:12;2.90;;;1.52;;
10761;SDS011;5433;50.862;4.320;2022-08-27T10:02:06;3.70;;;1.50;;
10761;SDS011;5433;50.862;4.320;2022-08-27T10:04:45;4.70;;;1.77;;
10761;SDS011;5433;50.862;4.320;2022-08-27T10:10:19;3.40;;;1.52;;
10761;SDS011;5433;50.862;4.320;2022-08-27T10:15:08;5.57;;;1.70;;
10761;SDS011;5433;50.862;4.320;2022-08-27T10:20:47;5.53;;;1.70;;
10761;SDS011;5433;50.862;4.320;2022-08-27T10:31:08;4.63;;;1.80;;
10761;SDS011;5433;50.862;4.320;2022-08-27T10:33:38;4.97;;;1.60;;
10761;SDS011;5433;50.862;4.320;2022-08-27T10:36:14;5.35;;;1.65;;
10761;SDS011;5433;50.862;4.320;2022-08-27T10:38:43;3.70;;;1.95;;
10761;SDS011;5433;50.862;4.320;2022-08-27T10:51:29;5.22;;;1.70;;
10761;SDS011;5433;50.862;4.320;2022-08-27T10:54:01;4.45;;;1.60;;
10761;SDS011;5433;50.862;4.320;2022-08-27T10:56:35;5.03;;;1.70;;
10761;SDS011;5433;50.862;4.320;2022-08-27T11:04:13;4.25;;;1.63;;
10761;SDS011;5433;50.862;4.320;2022-08-27T11:09:16;2.80;;;1.55;;
10761;SDS011;5433;50.862;4.320;2022-08-27T11:11:46;2.58;;;1.60;;
10761;SDS011;5433;50.862;4.320;2022-08-27T11:17:02;4.50;;;1.58;;
10761;SDS011;5433;50.862;4.320;2022-08-27T11:19:30;3.17;;;1.73;;
10761;SDS011;5433;50.862;4.320;2022-08-27T11:22:03;5.20;;;1.80;;
10761;SDS011;5433;50.862;4.320;2022-08-27T11:27:01;2.78;;;1.52;;
10761;SDS011;5433;50.862;4.320;2022-08-27T11:29:35;4.75;;;1.90;;
10761;SDS011;5433;50.862;4.320;2022-08-27T11:32:48;4.13;;;1.70;;
10761;SDS011;5433;50.862;4.320;2022-08-27T11:34:57;2.95;;;1.50;;
10761;SDS011;5433;50.862;4.320;2022-08-27T11:37:30;3.80;;;1.80;;
10761;SDS011;5433;50.862;4.320;2022-08-27T11:40:15;3.17;;;1.38;;
10761;SDS011;5433;50.862;4.320;2022-08-27T11:42:47;2.90;;;1.73;;
10761;SDS011;5433;50.862;4.320;2022-08-27T11:45:20;2.17;;;1.60;;
10761;SDS011;5433;50.862;4.320;2022-08-27T11:47:52;5.53;;;1.75;;
10761;SDS011;5433;50.862;4.320;2022-08-27T11:50:19;7.68;;;1.90;;
10761;SDS011;5433;50.862;4.320;2022-08-27T11:53:22;3.50;;;1.90;;
10761;SDS011;5433;50.862;4.320;2022-08-27T11:55:39;5.25;;;1.92;;
10761;SDS011;5433;50.862;4.320;2022-08-27T12:00:36;6.03;;;1.80;;
10761;SDS011;5433;50.862;4.320;2022-08-27T12:03:07;5.18;;;2.50;;
10761;SDS011;5433;50.862;4.320;2022-08-27T12:05:41;4.38;;;1.90;;
10761;SDS011;5433;50.862;4.320;2022-08-27T12:13:23;3.83;;;1.90;;
10761;SDS011;5433;50.862;4.320;2022-08-27T12:28:54;6.05;;;2.08;;
10761;SDS011;5433;50.862;4.320;2022-08-27T12:31:38;5.60;;;1.98;;
10761;SDS011;5433;50.862;4.320;2022-08-27T12:34:11;4.40;;;2.30;;
10761;SDS011;5433;50.862;4.320;2022-08-27T12:36:38;4.97;;;2.00;;
10761;SDS011;5433;50.862;4.320;2022-08-27T12:39:04;3.40;;;1.80;;
10761;SDS011;5433;50.862;4.320;2022-08-27T12:41:36;6.15;;;2.00;;
10761;SDS011;5433;50.862;4.320;2022-08-27T12:46:31;6.68;;;2.10;;
10761;SDS011;5433;50.862;4.320;2022-08-27T12:48:59;4.95;;;1.98;;
10761;SDS011;5433;50.862;4.320;2022-08-27T12:51:29;4.63;;;2.10;;
10761;SDS011;5433;50.862;4.320;2022-08-27T12:54:07;5.03;;;2.45;;
10761;SDS011;5433;50.862;4.320;2022-08-27T13:04:36;3.90;;;2.10;;
10761;SDS011;5433;50.862;4.320;2022-08-27T13:07:00;2.53;;;2.00;;
10761;SDS011;5433;50.862;4.320;2022-08-27T13:09:27;3.78;;;2.20;;
10761;SDS011;5433;50.862;4.320;2022-08-27T13:11:53;5.78;;;3.53;;
10761;SDS011;5433;50.862;4.320;2022-08-27T13:14:21;7.55;;;4.32;;
10761;SDS011;5433;50.862;4.320;2022-08-27T13:16:50;5.28;;;3.20;;
10761;SDS011;5433;50.862;4.320;2022-08-27T13:19:30;3.25;;;2.30;;
10761;SDS011;5433;50.862;4.320;2022-08-27T13:21:58;3.42;;;2.20;;
10761;SDS011;5433;50.862;4.320;2022-08-27T13:24:27;3.47;;;2.10;;
10761;SDS011;5433;50.862;4.320;2022-08-27T13:26:54;3.72;;;2.47;;
10761;SDS011;5433;50.862;4.320;2022-08-27T13:29:21;4.70;;;2.35;;
10761;SDS011;5433;50.862;4.320;2022-08-27T13:31:47;3.25;;;2.10;;
10761;SDS011;5433;50.862;4.320;2022-08-27T13:34:16;3.55;;;2.10;;
10761;SDS011;5433;50.862;4.320;2022-08-27T13:36:57;5.20;;;2.20;;
10761;SDS011;5433;50.862;4.320;2022-08-27T13:39:24;3.85;;;2.13;;
10761;SDS011;5433;50.862;4.320;2022-08-27T13:41:50;4.18;;;2.40;;
10761;SDS011;5433;50.862;4.320;2022-08-27T13:44:26;5.32;;;1.98;;
10761;SDS011;5433;50.862;4.320;2022-08-27T13:47:08;5.63;;;2.40;;
10761;SDS011;5433;50.862;4.320;2022-08-27T13:49:38;5.15;;;2.08;;
10761;SDS011;5433;50.862;4.320;2022-08-27T13:54:31;3.67;;;2.00;;
10761;SDS011;5433;50.862;4.320;2022-08-27T13:57:02;3.13;;;1.83;;
10761;SDS011;5433;50.862;4.320;2022-08-27T13:59:31;4.35;;;1.90;;
10761;SDS011;5433;50.862;4.320;2022-08-27T14:01:59;3.30;;;2.00;;
10761;SDS011;5433;50.862;4.320;2022-08-27T14:04:35;4.78;;;2.40;;
10761;SDS011;5433;50.862;4.320;2022-08-27T14:09:48;5.53;;;2.17;;
10761;SDS011;5433;50.862;4.320;2022-08-27T14:12:54;3.97;;;2.10;;
10761;SDS011;5433;50.862;4.320;2022-08-27T14:15:12;5.57;;;2.05;;
10761;SDS011;5433;50.862;4.320;2022-08-27T14:17:39;4.40;;;2.17;;
10761;SDS011;5433;50.862;4.320;2022-08-27T14:20:09;4.70;;;2.05;;
10761;SDS011;5433;50.862;4.320;2022-08-27T14:22:35;4.60;;;2.13;;
10761;SDS011;5433;50.862;4.320;2022-08-27T14:25:02;3.55;;;2.20;;
10761;SDS011;5433;50.862;4.320;2022-08-27T14:27:28;3.92;;;2.17;;
10761;SDS011;5433;50.862;4.320;2022-08-27T14:29:55;3.58;;;2.10;;
10761;SDS011;5433;50.862;4.320;2022-08-27T14:32:21;4.63;;;2.65;;
10761;SDS011;5433;50.862;4.320;2022-08-27T14:34:47;5.72;;;2.50;;
10761;SDS011;5433;50.862;4.320;2022-08-27T14:37:17;5.35;;;2.40;;
10761;SDS011;5433;50.862;4.320;2022-08-27T14:39:43;4.43;;;2.63;;
10761;SDS011;5433;50.862;4.320;2022-08-27T14:42:09;6.65;;;2.10;;
10761;SDS011;5433;50.862;4.320;2022-08-27T14:44:36;4.72;;;2.10;;
10761;SDS011;5433;50.862;4.320;2022-08-27T14:47:03;3.90;;;2.20;;
10761;SDS011;5433;50.862;4.320;2022-08-27T14:49:30;4.18;;;2.05;;
10761;SDS011;5433;50.862;4.320;2022-08-27T14:51:58;3.42;;;2.50;;
10761;SDS011;5433;50.862;4.320;2022-08-27T14:54:25;3.65;;;2.00;;
10761;SDS011;5433;50.862;4.320;2022-08-27T14:56:51;3.65;;;2.45;;
10761;SDS011;5433;50.862;4.320;2022-08-27T14:59:19;5.60;;;2.40;;
10761;SDS011;5433;50.862;4.320;2022-08-27T15:01:45;4.47;;;2.35;;
10761;SDS011;5433;50.862;4.320;2022-08-27T15:04:11;5.28;;;2.40;;
10761;SDS011;5433;50.862;4.320;2022-08-27T15:06:37;4.90;;;2.38;;
10761;SDS011;5433;50.862;4.320;2022-08-27T15:09:03;3.25;;;2.22;;
10761;SDS011;5433;50.862;4.320;2022-08-27T15:11:35;4.45;;;2.00;;
10761;SDS011;5433;50.862;4.320;2022-08-27T15:14:04;5.05;;;2.42;;
10761;SDS011;5433;50.862;4.320;2022-08-27T15:16:35;6.60;;;2.38;;
10761;SDS011;5433;50.862;4.320;2022-08-27T15:19:03;4.18;;;2.10;;
10761;SDS011;5433;50.862;4.320;2022-08-27T15:21:31;3.13;;;2.30;;
10761;SDS011;5433;50.862;4.320;2022-08-27T15:23:59;4.95;;;2.22;;
10761;SDS011;5433;50.862;4.320;2022-08-27T15:26:27;4.80;;;2.65;;
10761;SDS011;5433;50.862;4.320;2022-08-27T15:28:54;4.85;;;2.60;;
10761;SDS011;5433;50.862;4.320;2022-08-27T15:31:20;3.20;;;2.05;;
10761;SDS011;5433;50.862;4.320;2022-08-27T15:33:46;3.13;;;2.05;;
10761;SDS011;5433;50.862;4.320;2022-08-27T15:36:12;3.10;;;1.95;;
10761;SDS011;5433;50.862;4.320;2022-08-27T15:38:39;3.10;;;2.10;;
10761;SDS011;5433;50.862;4.320;2022-08-27T15:41:05;6.47;;;2.53;;
10761;SDS011;5433;50.862;4.320;2022-08-27T15:43:31;3.95;;;2.05;;
10761;SDS011;5433;50.862;4.320;2022-08-27T15:45:57;4.22;;;2.40;;
10761;SDS011;5433;50.862;4.320;2022-08-27T15:48:23;5.00;;;2.60;;
10761;SDS011;5433;50.862;4.320;2022-08-27T15:50:49;5.70;;;2.40;;
10761;SDS011;5433;50.862;4.320;2022-08-27T15:53:16;4.40;;;2.10;;
10761;SDS011;5433;50.862;4.320;2022-08-27T15:55:44;6.55;;;2.38;;
10761;SDS011;5433;50.862;4.320;2022-08-27T15:58:10;2.60;;;1.92;;
10761;SDS011;5433;50.862;4.320;2022-08-27T16:00:37;4.13;;;2.30;;
10761;SDS011;5433;50.862;4.320;2022-08-27T16:03:04;3.85;;;2.20;;
10761;SDS011;5433;50.862;4.320;2022-08-27T16:05:32;4.40;;;2.38;;
10761;SDS011;5433;50.862;4.320;2022-08-27T16:07:59;4.78;;;2.67;;
10761;SDS011;5433;50.862;4.320;2022-08-27T16:10:24;5.00;;;2.53;;
10761;SDS011;5433;50.862;4.320;2022-08-27T16:12:51;3.95;;;2.20;;
10761;SDS011;5433;50.862;4.320;2022-08-27T16:15:17;3.30;;;2.40;;
10761;SDS011;5433;50.862;4.320;2022-08-27T16:17:43;5.80;;;2.20;;
10761;SDS011;5433;50.862;4.320;2022-08-27T16:20:10;5.60;;;2.45;;
10761;SDS011;5433;50.862;4.320;2022-08-27T16:22:37;5.18;;;3.22;;
10761;SDS011;5433;50.862;4.320;2022-08-27T16:25:03;3.78;;;2.03;;
10761;SDS011;5433;50.862;4.320;2022-08-27T16:27:30;4.97;;;2.47;;
10761;SDS011;5433;50.862;4.320;2022-08-27T16:29:57;6.88;;;2.40;;
10761;SDS011;5433;50.862;4.320;2022-08-27T16:32:23;8.35;;;2.65;;
10761;SDS011;5433;50.862;4.320;2022-08-27T16:34:49;6.28;;;2.50;;
10761;SDS011;5433;50.862;4.320;2022-08-27T16:37:15;5.43;;;2.45;;
10761;SDS011;5433;50.862;4.320;2022-08-27T16:39:41;4.35;;;2.50;;
10761;SDS011;5433;50.862;4.320;2022-08-27T16:42:07;5.65;;;2.30;;